sensor_id;sensor_type;location;lat;lon;timestamp;P1;durP1;ratioP1;P2;durP2;ratioP2
64738;SDS011;51175;51.186;0.276;2022-10-04T00:00:40;11.65;;;5.90;;
64738;SDS011;51175;51.186;0.276;2022-10-04T00:01:09;8.45;;;4.60;;
64738;SDS011;51175;51.186;0.276;2022-10-04T00:02:27;10.35;;;5.53;;
64738;SDS011;51175;51.186;0.276;2022-10-04T00:03:08;9.38;;;4.70;;
64738;SDS011;51175;51.186;0.276;2022-10-04T00:03:45;13.52;;;5.55;;
64738;SDS011;51175;51.186;0.276;2022-10-04T00:04:20;10.25;;;5.90;;
64738;SDS011;51175;51.186;0.276;2022-10-04T00:05:26;7.22;;;4.60;;
64738;SDS011;51175;51.186;0.276;2022-10-04T00:05:59;9.90;;;4.93;;
64738;SDS011;51175;51.186;0.276;2022-10-04T00:06:30;8.93;;;5.97;;
64738;SDS011;51175;51.186;0.276;2022-10-04T00:07:02;9.63;;;5.10;;
64738;SDS011;51175;51.186;0.276;2022-10-04T00:07:37;11.77;;;5.75;;
64738;SDS011;51175;51.186;0.276;2022-10-04T00:08:27;12.35;;;5.72;;
64738;SDS011;51175;51.186;0.276;2022-10-04T00:09:03;10.48;;;7.10;;
64738;SDS011;51175;51.186;0.276;2022-10-04T00:09:47;11.77;;;5.28;;
64738;SDS011;51175;51.186;0.276;2022-10-04T00:10:22;11.55;;;5.85;;
64738;SDS011;51175;51.186;0.276;2022-10-04T00:11:12;9.63;;;5.18;;
64738;SDS011;51175;51.186;0.276;2022-10-04T00:11:54;9.75;;;4.75;;
64738;SDS011;51175;51.186;0.276;2022-10-04T00:12:27;8.70;;;5.53;;
64738;SDS011;51175;51.186;0.276;2022-10-04T00:13:03;7.43;;;5.00;;
64738;SDS011;51175;51.186;0.276;2022-10-04T00:13:36;10.60;;;5.30;;
64738;SDS011;51175;51.186;0.276;2022-10-04T00:14:24;10.70;;;6.38;;
64738;SDS011;51175;51.186;0.276;2022-10-04T00:15:04;8.63;;;5.10;;
64738;SDS011;51175;51.186;0.276;2022-10-04T00:15:47;8.70;;;5.78;;
64738;SDS011;51175;51.186;0.276;2022-10-04T00:16:25;7.57;;;4.65;;
64738;SDS011;51175;51.186;0.276;2022-10-04T00:17:06;7.88;;;5.28;;
64738;SDS011;51175;51.186;0.276;2022-10-04T00:17:42;8.82;;;5.63;;
64738;SDS011;51175;51.186;0.276;2022-10-04T00:18:44;8.82;;;5.82;;
64738;SDS011;51175;51.186;0.276;2022-10-04T00:19:48;8.77;;;5.40;;
64738;SDS011;51175;51.186;0.276;2022-10-04T00:21:22;10.55;;;6.15;;
64738;SDS011;51175;51.186;0.276;2022-10-04T00:22:25;10.45;;;5.53;;
64738;SDS011;51175;51.186;0.276;2022-10-04T00:23:42;8.25;;;5.13;;
64738;SDS011;51175;51.186;0.276;2022-10-04T00:23:52;9.60;;;4.75;;
64738;SDS011;51175;51.186;0.276;2022-10-04T00:24:59;9.52;;;5.82;;
64738;SDS011;51175;51.186;0.276;2022-10-04T00:25:35;6.82;;;4.93;;
64738;SDS011;51175;51.186;0.276;2022-10-04T00:26:13;8.02;;;4.95;;
64738;SDS011;51175;51.186;0.276;2022-10-04T00:28:22;8.52;;;5.32;;
64738;SDS011;51175;51.186;0.276;2022-10-04T00:29:22;12.15;;;5.35;;
64738;SDS011;51175;51.186;0.276;2022-10-04T00:30:36;10.95;;;5.25;;
64738;SDS011;51175;51.186;0.276;2022-10-04T00:31:08;9.88;;;5.80;;
64738;SDS011;51175;51.186;0.276;2022-10-04T00:33:10;8.15;;;5.65;;
64738;SDS011;51175;51.186;0.276;2022-10-04T00:34:58;9.35;;;5.65;;
64738;SDS011;51175;51.186;0.276;2022-10-04T00:35:59;9.77;;;5.70;;
64738;SDS011;51175;51.186;0.276;2022-10-04T00:36:30;8.18;;;5.57;;
64738;SDS011;51175;51.186;0.276;2022-10-04T00:37:13;8.80;;;6.28;;
64738;SDS011;51175;51.186;0.276;2022-10-04T00:38:00;9.98;;;6.35;;
64738;SDS011;51175;51.186;0.276;2022-10-04T00:38:42;8.52;;;6.70;;
64738;SDS011;51175;51.186;0.276;2022-10-04T00:39:13;8.90;;;6.50;;
64738;SDS011;51175;51.186;0.276;2022-10-04T00:39:47;11.15;;;6.43;;
64738;SDS011;51175;51.186;0.276;2022-10-04T00:40:51;9.25;;;5.75;;
64738;SDS011;51175;51.186;0.276;2022-10-04T00:42:40;9.85;;;7.03;;
64738;SDS011;51175;51.186;0.276;2022-10-04T00:44:04;10.15;;;6.35;;
64738;SDS011;51175;51.186;0.276;2022-10-04T00:46:21;9.20;;;6.05;;
64738;SDS011;51175;51.186;0.276;2022-10-04T00:46:53;9.20;;;7.20;;
64738;SDS011;51175;51.186;0.276;2022-10-04T00:49:13;9.38;;;7.03;;
64738;SDS011;51175;51.186;0.276;2022-10-04T00:49:48;11.27;;;5.90;;
64738;SDS011;51175;51.186;0.276;2022-10-04T00:50:26;8.48;;;6.53;;
64738;SDS011;51175;51.186;0.276;2022-10-04T00:51:08;9.18;;;6.95;;
64738;SDS011;51175;51.186;0.276;2022-10-04T00:51:45;10.65;;;6.50;;
64738;SDS011;51175;51.186;0.276;2022-10-04T00:52:24;8.00;;;6.80;;
64738;SDS011;51175;51.186;0.276;2022-10-04T00:52:58;8.52;;;5.82;;
64738;SDS011;51175;51.186;0.276;2022-10-04T00:54:35;11.38;;;7.45;;
64738;SDS011;51175;51.186;0.276;2022-10-04T00:55:16;8.05;;;6.55;;
64738;SDS011;51175;51.186;0.276;2022-10-04T00:56:12;11.02;;;6.65;;
64738;SDS011;51175;51.186;0.276;2022-10-04T00:56:51;8.50;;;6.22;;
64738;SDS011;51175;51.186;0.276;2022-10-04T00:57:44;10.30;;;6.03;;
64738;SDS011;51175;51.186;0.276;2022-10-04T00:58:39;8.20;;;5.82;;
64738;SDS011;51175;51.186;0.276;2022-10-04T01:00:13;10.13;;;5.68;;
64738;SDS011;51175;51.186;0.276;2022-10-04T01:00:46;9.32;;;6.50;;
64738;SDS011;51175;51.186;0.276;2022-10-04T01:01:19;9.70;;;6.05;;
64738;SDS011;51175;51.186;0.276;2022-10-04T01:02:43;9.60;;;6.88;;
64738;SDS011;51175;51.186;0.276;2022-10-04T01:02:52;7.75;;;6.20;;
64738;SDS011;51175;51.186;0.276;2022-10-04T01:03:33;9.10;;;6.32;;
64738;SDS011;51175;51.186;0.276;2022-10-04T01:04:21;7.65;;;6.25;;
64738;SDS011;51175;51.186;0.276;2022-10-04T01:05:08;7.13;;;6.05;;
64738;SDS011;51175;51.186;0.276;2022-10-04T01:05:48;7.47;;;6.05;;
64738;SDS011;51175;51.186;0.276;2022-10-04T01:06:22;7.25;;;5.78;;
64738;SDS011;51175;51.186;0.276;2022-10-04T01:06:56;9.40;;;5.70;;
64738;SDS011;51175;51.186;0.276;2022-10-04T01:07:36;7.60;;;5.57;;
64738;SDS011;51175;51.186;0.276;2022-10-04T01:08:14;10.73;;;7.07;;
64738;SDS011;51175;51.186;0.276;2022-10-04T01:08:56;7.63;;;6.32;;
64738;SDS011;51175;51.186;0.276;2022-10-04T01:10:07;8.15;;;6.72;;
64738;SDS011;51175;51.186;0.276;2022-10-04T01:10:44;8.00;;;6.30;;
64738;SDS011;51175;51.186;0.276;2022-10-04T01:11:23;8.15;;;5.93;;
64738;SDS011;51175;51.186;0.276;2022-10-04T01:12:04;7.93;;;5.93;;
64738;SDS011;51175;51.186;0.276;2022-10-04T01:12:44;8.35;;;6.10;;
64738;SDS011;51175;51.186;0.276;2022-10-04T01:16:16;8.65;;;6.25;;
64738;SDS011;51175;51.186;0.276;2022-10-04T01:16:48;7.18;;;6.15;;
64738;SDS011;51175;51.186;0.276;2022-10-04T01:17:20;8.00;;;6.15;;
64738;SDS011;51175;51.186;0.276;2022-10-04T01:18:49;7.55;;;5.55;;
64738;SDS011;51175;51.186;0.276;2022-10-04T01:19:56;7.78;;;5.93;;
64738;SDS011;51175;51.186;0.276;2022-10-04T01:20:32;6.57;;;5.28;;
64738;SDS011;51175;51.186;0.276;2022-10-04T01:21:06;8.38;;;5.93;;
64738;SDS011;51175;51.186;0.276;2022-10-04T01:21:37;5.95;;;5.20;;
64738;SDS011;51175;51.186;0.276;2022-10-04T01:22:13;9.15;;;6.65;;
64738;SDS011;51175;51.186;0.276;2022-10-04T01:22:48;5.95;;;5.28;;
64738;SDS011;51175;51.186;0.276;2022-10-04T01:23:53;7.22;;;6.03;;
64738;SDS011;51175;51.186;0.276;2022-10-04T01:24:23;6.00;;;4.90;;
64738;SDS011;51175;51.186;0.276;2022-10-04T01:24:53;7.88;;;5.85;;
64738;SDS011;51175;51.186;0.276;2022-10-04T01:25:43;8.32;;;5.70;;
64738;SDS011;51175;51.186;0.276;2022-10-04T01:26:58;8.13;;;5.65;;
64738;SDS011;51175;51.186;0.276;2022-10-04T01:27:36;8.15;;;5.47;;
64738;SDS011;51175;51.186;0.276;2022-10-04T01:28:13;7.10;;;5.30;;
64738;SDS011;51175;51.186;0.276;2022-10-04T01:28:43;6.47;;;5.88;;
64738;SDS011;51175;51.186;0.276;2022-10-04T01:29:15;6.32;;;5.47;;
64738;SDS011;51175;51.186;0.276;2022-10-04T01:29:47;7.55;;;5.60;;
64738;SDS011;51175;51.186;0.276;2022-10-04T01:30:18;6.93;;;5.82;;
64738;SDS011;51175;51.186;0.276;2022-10-04T01:30:49;7.40;;;5.75;;
64738;SDS011;51175;51.186;0.276;2022-10-04T01:31:20;7.35;;;5.13;;
64738;SDS011;51175;51.186;0.276;2022-10-04T01:31:52;8.45;;;5.72;;
64738;SDS011;51175;51.186;0.276;2022-10-04T01:32:28;6.55;;;5.60;;
64738;SDS011;51175;51.186;0.276;2022-10-04T01:33:00;6.97;;;5.35;;
64738;SDS011;51175;51.186;0.276;2022-10-04T01:33:32;7.68;;;6.18;;
64738;SDS011;51175;51.186;0.276;2022-10-04T01:34:05;7.13;;;5.32;;
64738;SDS011;51175;51.186;0.276;2022-10-04T01:34:36;6.85;;;5.22;;
64738;SDS011;51175;51.186;0.276;2022-10-04T01:35:10;8.68;;;5.50;;
64738;SDS011;51175;51.186;0.276;2022-10-04T01:35:42;7.50;;;6.20;;
64738;SDS011;51175;51.186;0.276;2022-10-04T01:36:13;7.38;;;5.53;;
64738;SDS011;51175;51.186;0.276;2022-10-04T01:36:44;9.20;;;5.72;;
64738;SDS011;51175;51.186;0.276;2022-10-04T01:37:17;6.82;;;5.25;;
64738;SDS011;51175;51.186;0.276;2022-10-04T01:37:48;6.72;;;5.72;;
64738;SDS011;51175;51.186;0.276;2022-10-04T01:38:18;8.18;;;6.03;;
64738;SDS011;51175;51.186;0.276;2022-10-04T01:38:49;8.70;;;6.30;;
64738;SDS011;51175;51.186;0.276;2022-10-04T01:39:21;5.78;;;5.13;;
64738;SDS011;51175;51.186;0.276;2022-10-04T01:39:53;7.88;;;5.53;;
64738;SDS011;51175;51.186;0.276;2022-10-04T01:40:24;7.68;;;5.80;;
64738;SDS011;51175;51.186;0.276;2022-10-04T01:40:56;6.72;;;5.80;;
64738;SDS011;51175;51.186;0.276;2022-10-04T01:43:11;6.70;;;4.93;;
64738;SDS011;51175;51.186;0.276;2022-10-04T01:43:47;5.47;;;4.85;;
64738;SDS011;51175;51.186;0.276;2022-10-04T01:44:23;5.85;;;5.07;;
64738;SDS011;51175;51.186;0.276;2022-10-04T01:45:09;6.78;;;5.70;;
64738;SDS011;51175;51.186;0.276;2022-10-04T01:45:47;7.35;;;5.80;;
64738;SDS011;51175;51.186;0.276;2022-10-04T01:46:24;8.15;;;4.85;;
64738;SDS011;51175;51.186;0.276;2022-10-04T01:46:59;7.93;;;5.43;;
64738;SDS011;51175;51.186;0.276;2022-10-04T01:48:26;7.05;;;4.75;;
64738;SDS011;51175;51.186;0.276;2022-10-04T01:49:03;8.10;;;6.32;;
64738;SDS011;51175;51.186;0.276;2022-10-04T01:49:40;8.02;;;5.75;;
64738;SDS011;51175;51.186;0.276;2022-10-04T01:50:18;6.35;;;4.95;;
64738;SDS011;51175;51.186;0.276;2022-10-04T01:51:36;7.55;;;5.03;;
64738;SDS011;51175;51.186;0.276;2022-10-04T01:52:00;7.50;;;5.22;;
64738;SDS011;51175;51.186;0.276;2022-10-04T01:52:50;8.70;;;5.82;;
64738;SDS011;51175;51.186;0.276;2022-10-04T01:53:26;5.75;;;4.60;;
64738;SDS011;51175;51.186;0.276;2022-10-04T01:53:59;6.03;;;5.10;;
64738;SDS011;51175;51.186;0.276;2022-10-04T01:54:37;6.80;;;4.88;;
64738;SDS011;51175;51.186;0.276;2022-10-04T01:55:13;7.10;;;4.90;;
64738;SDS011;51175;51.186;0.276;2022-10-04T01:55:49;8.15;;;5.40;;
64738;SDS011;51175;51.186;0.276;2022-10-04T01:56:25;5.57;;;4.97;;
64738;SDS011;51175;51.186;0.276;2022-10-04T01:57:02;6.55;;;4.95;;
64738;SDS011;51175;51.186;0.276;2022-10-04T01:57:57;5.53;;;4.88;;
64738;SDS011;51175;51.186;0.276;2022-10-04T01:58:32;8.27;;;5.60;;
64738;SDS011;51175;51.186;0.276;2022-10-04T01:59:14;7.45;;;5.90;;
64738;SDS011;51175;51.186;0.276;2022-10-04T02:00:00;7.75;;;5.40;;
64738;SDS011;51175;51.186;0.276;2022-10-04T02:00:36;6.88;;;5.30;;
64738;SDS011;51175;51.186;0.276;2022-10-04T02:01:12;8.85;;;5.45;;
64738;SDS011;51175;51.186;0.276;2022-10-04T02:01:49;7.20;;;5.13;;
64738;SDS011;51175;51.186;0.276;2022-10-04T02:02:26;6.78;;;5.35;;
64738;SDS011;51175;51.186;0.276;2022-10-04T02:03:00;10.23;;;5.85;;
64738;SDS011;51175;51.186;0.276;2022-10-04T02:03:44;7.50;;;5.20;;
64738;SDS011;51175;51.186;0.276;2022-10-04T02:04:32;8.55;;;5.55;;
64738;SDS011;51175;51.186;0.276;2022-10-04T02:05:06;5.93;;;5.20;;
64738;SDS011;51175;51.186;0.276;2022-10-04T02:05:46;6.22;;;4.95;;
64738;SDS011;51175;51.186;0.276;2022-10-04T02:06:19;6.80;;;5.32;;
64738;SDS011;51175;51.186;0.276;2022-10-04T02:06:51;7.43;;;5.68;;
64738;SDS011;51175;51.186;0.276;2022-10-04T02:07:27;6.68;;;5.18;;
64738;SDS011;51175;51.186;0.276;2022-10-04T02:08:03;7.90;;;5.55;;
64738;SDS011;51175;51.186;0.276;2022-10-04T02:08:38;8.32;;;5.82;;
64738;SDS011;51175;51.186;0.276;2022-10-04T02:09:21;5.85;;;5.22;;
64738;SDS011;51175;51.186;0.276;2022-10-04T02:09:56;6.82;;;5.53;;
64738;SDS011;51175;51.186;0.276;2022-10-04T02:10:31;8.15;;;5.95;;
64738;SDS011;51175;51.186;0.276;2022-10-04T02:11:05;6.40;;;4.40;;
64738;SDS011;51175;51.186;0.276;2022-10-04T02:11:36;6.13;;;4.97;;
64738;SDS011;51175;51.186;0.276;2022-10-04T02:12:16;7.60;;;5.78;;
64738;SDS011;51175;51.186;0.276;2022-10-04T02:12:49;6.60;;;4.97;;
64738;SDS011;51175;51.186;0.276;2022-10-04T02:13:24;6.10;;;4.57;;
64738;SDS011;51175;51.186;0.276;2022-10-04T02:13:58;6.25;;;4.57;;
64738;SDS011;51175;51.186;0.276;2022-10-04T02:14:33;6.93;;;5.35;;
64738;SDS011;51175;51.186;0.276;2022-10-04T02:15:06;7.63;;;5.10;;
64738;SDS011;51175;51.186;0.276;2022-10-04T02:15:37;7.47;;;5.28;;
64738;SDS011;51175;51.186;0.276;2022-10-04T02:16:09;7.65;;;4.43;;
64738;SDS011;51175;51.186;0.276;2022-10-04T02:16:41;6.85;;;4.32;;
64738;SDS011;51175;51.186;0.276;2022-10-04T02:17:14;8.68;;;5.55;;
64738;SDS011;51175;51.186;0.276;2022-10-04T02:17:46;5.70;;;4.65;;
64738;SDS011;51175;51.186;0.276;2022-10-04T02:18:19;6.35;;;5.47;;
64738;SDS011;51175;51.186;0.276;2022-10-04T02:18:51;7.60;;;5.10;;
64738;SDS011;51175;51.186;0.276;2022-10-04T02:19:24;8.52;;;5.07;;
64738;SDS011;51175;51.186;0.276;2022-10-04T02:19:57;6.43;;;4.93;;
64738;SDS011;51175;51.186;0.276;2022-10-04T02:20:30;10.32;;;4.93;;
64738;SDS011;51175;51.186;0.276;2022-10-04T02:21:01;5.68;;;4.28;;
64738;SDS011;51175;51.186;0.276;2022-10-04T02:21:34;8.10;;;4.50;;
64738;SDS011;51175;51.186;0.276;2022-10-04T02:22:06;4.57;;;4.18;;
64738;SDS011;51175;51.186;0.276;2022-10-04T02:22:39;5.95;;;4.65;;
64738;SDS011;51175;51.186;0.276;2022-10-04T02:23:12;8.45;;;4.72;;
64738;SDS011;51175;51.186;0.276;2022-10-04T02:23:45;8.43;;;4.82;;
64738;SDS011;51175;51.186;0.276;2022-10-04T02:24:16;5.25;;;4.43;;
64738;SDS011;51175;51.186;0.276;2022-10-04T02:24:48;6.90;;;4.57;;
64738;SDS011;51175;51.186;0.276;2022-10-04T02:25:19;6.05;;;4.55;;
64738;SDS011;51175;51.186;0.276;2022-10-04T02:25:50;5.53;;;4.28;;
64738;SDS011;51175;51.186;0.276;2022-10-04T02:26:21;6.97;;;4.72;;
64738;SDS011;51175;51.186;0.276;2022-10-04T02:26:51;8.75;;;4.78;;
64738;SDS011;51175;51.186;0.276;2022-10-04T02:27:25;7.57;;;4.65;;
64738;SDS011;51175;51.186;0.276;2022-10-04T02:27:58;9.85;;;4.20;;
64738;SDS011;51175;51.186;0.276;2022-10-04T02:28:28;5.70;;;4.18;;
64738;SDS011;51175;51.186;0.276;2022-10-04T02:29:02;9.93;;;4.32;;
64738;SDS011;51175;51.186;0.276;2022-10-04T02:29:32;7.28;;;4.63;;
64738;SDS011;51175;51.186;0.276;2022-10-04T02:30:05;6.15;;;4.97;;
64738;SDS011;51175;51.186;0.276;2022-10-04T02:30:38;5.15;;;3.88;;
64738;SDS011;51175;51.186;0.276;2022-10-04T02:31:13;8.80;;;4.38;;
64738;SDS011;51175;51.186;0.276;2022-10-04T02:32:03;4.80;;;3.70;;
64738;SDS011;51175;51.186;0.276;2022-10-04T02:32:55;6.88;;;4.38;;
64738;SDS011;51175;51.186;0.276;2022-10-04T02:33:26;5.07;;;3.35;;
64738;SDS011;51175;51.186;0.276;2022-10-04T02:33:57;7.18;;;5.65;;
64738;SDS011;51175;51.186;0.276;2022-10-04T02:34:29;5.72;;;3.80;;
64738;SDS011;51175;51.186;0.276;2022-10-04T02:35:00;6.68;;;4.80;;
64738;SDS011;51175;51.186;0.276;2022-10-04T02:35:34;5.20;;;4.00;;
64738;SDS011;51175;51.186;0.276;2022-10-04T02:36:07;7.35;;;4.45;;
64738;SDS011;51175;51.186;0.276;2022-10-04T02:36:39;8.02;;;5.03;;
64738;SDS011;51175;51.186;0.276;2022-10-04T02:37:11;7.18;;;4.25;;
64738;SDS011;51175;51.186;0.276;2022-10-04T02:37:43;5.50;;;4.05;;
64738;SDS011;51175;51.186;0.276;2022-10-04T02:38:16;5.75;;;4.32;;
64738;SDS011;51175;51.186;0.276;2022-10-04T02:38:58;6.13;;;3.28;;
64738;SDS011;51175;51.186;0.276;2022-10-04T02:39:39;9.68;;;4.22;;
64738;SDS011;51175;51.186;0.276;2022-10-04T02:40:18;5.75;;;3.55;;
64738;SDS011;51175;51.186;0.276;2022-10-04T02:41:11;6.15;;;4.28;;
64738;SDS011;51175;51.186;0.276;2022-10-04T02:42:32;6.80;;;3.53;;
64738;SDS011;51175;51.186;0.276;2022-10-04T02:43:03;5.30;;;3.53;;
64738;SDS011;51175;51.186;0.276;2022-10-04T02:44:12;7.28;;;3.72;;
64738;SDS011;51175;51.186;0.276;2022-10-04T02:44:51;7.25;;;4.80;;
64738;SDS011;51175;51.186;0.276;2022-10-04T02:45:37;8.63;;;4.50;;
64738;SDS011;51175;51.186;0.276;2022-10-04T02:46:12;8.00;;;4.03;;
64738;SDS011;51175;51.186;0.276;2022-10-04T02:47:43;5.65;;;3.72;;
64738;SDS011;51175;51.186;0.276;2022-10-04T02:49:17;6.75;;;3.42;;
64738;SDS011;51175;51.186;0.276;2022-10-04T02:50:00;5.93;;;3.67;;
64738;SDS011;51175;51.186;0.276;2022-10-04T02:50:39;5.43;;;3.70;;
64738;SDS011;51175;51.186;0.276;2022-10-04T02:51:17;5.03;;;3.53;;
64738;SDS011;51175;51.186;0.276;2022-10-04T02:52:52;6.40;;;4.10;;
64738;SDS011;51175;51.186;0.276;2022-10-04T02:53:23;5.82;;;3.25;;
64738;SDS011;51175;51.186;0.276;2022-10-04T02:55:06;7.28;;;3.70;;
64738;SDS011;51175;51.186;0.276;2022-10-04T02:55:49;7.57;;;3.85;;
64738;SDS011;51175;51.186;0.276;2022-10-04T02:56:20;6.90;;;4.00;;
64738;SDS011;51175;51.186;0.276;2022-10-04T02:56:52;6.40;;;3.78;;
64738;SDS011;51175;51.186;0.276;2022-10-04T02:57:24;5.95;;;3.63;;
64738;SDS011;51175;51.186;0.276;2022-10-04T02:57:55;5.72;;;3.63;;
64738;SDS011;51175;51.186;0.276;2022-10-04T02:58:27;5.72;;;3.90;;
64738;SDS011;51175;51.186;0.276;2022-10-04T02:59:00;6.18;;;4.25;;
64738;SDS011;51175;51.186;0.276;2022-10-04T02:59:32;5.25;;;3.60;;
64738;SDS011;51175;51.186;0.276;2022-10-04T03:00:49;7.60;;;3.42;;
64738;SDS011;51175;51.186;0.276;2022-10-04T03:01:26;4.28;;;3.50;;
64738;SDS011;51175;51.186;0.276;2022-10-04T03:02:19;7.22;;;3.33;;
64738;SDS011;51175;51.186;0.276;2022-10-04T03:03:53;7.38;;;3.42;;
64738;SDS011;51175;51.186;0.276;2022-10-04T03:04:26;5.00;;;3.42;;
64738;SDS011;51175;51.186;0.276;2022-10-04T03:05:03;7.70;;;4.15;;
64738;SDS011;51175;51.186;0.276;2022-10-04T03:05:38;6.20;;;3.88;;
64738;SDS011;51175;51.186;0.276;2022-10-04T03:06:10;7.38;;;4.07;;
64738;SDS011;51175;51.186;0.276;2022-10-04T03:06:44;5.38;;;3.78;;
64738;SDS011;51175;51.186;0.276;2022-10-04T03:07:15;5.70;;;3.28;;
64738;SDS011;51175;51.186;0.276;2022-10-04T03:07:46;5.13;;;3.42;;
64738;SDS011;51175;51.186;0.276;2022-10-04T03:08:17;6.47;;;3.35;;
64738;SDS011;51175;51.186;0.276;2022-10-04T03:09:21;5.43;;;3.15;;
64738;SDS011;51175;51.186;0.276;2022-10-04T03:09:53;5.65;;;3.42;;
64738;SDS011;51175;51.186;0.276;2022-10-04T03:10:23;5.85;;;3.53;;
64738;SDS011;51175;51.186;0.276;2022-10-04T03:10:55;5.63;;;3.75;;
64738;SDS011;51175;51.186;0.276;2022-10-04T03:11:29;6.63;;;3.17;;
64738;SDS011;51175;51.186;0.276;2022-10-04T03:12:03;5.57;;;3.67;;
64738;SDS011;51175;51.186;0.276;2022-10-04T03:12:34;6.50;;;3.20;;
64738;SDS011;51175;51.186;0.276;2022-10-04T03:13:06;6.38;;;3.92;;
64738;SDS011;51175;51.186;0.276;2022-10-04T03:13:38;4.43;;;3.22;;
64738;SDS011;51175;51.186;0.276;2022-10-04T03:14:13;7.25;;;3.83;;
64738;SDS011;51175;51.186;0.276;2022-10-04T03:14:47;7.30;;;4.18;;
64738;SDS011;51175;51.186;0.276;2022-10-04T03:15:18;4.97;;;3.47;;
64738;SDS011;51175;51.186;0.276;2022-10-04T03:15:49;6.05;;;3.75;;
64738;SDS011;51175;51.186;0.276;2022-10-04T03:16:20;5.40;;;3.92;;
64738;SDS011;51175;51.186;0.276;2022-10-04T03:16:52;6.90;;;3.67;;
64738;SDS011;51175;51.186;0.276;2022-10-04T03:17:24;5.10;;;3.42;;
64738;SDS011;51175;51.186;0.276;2022-10-04T03:17:55;6.10;;;3.95;;
64738;SDS011;51175;51.186;0.276;2022-10-04T03:18:25;7.75;;;4.05;;
64738;SDS011;51175;51.186;0.276;2022-10-04T03:18:56;6.38;;;3.20;;
64738;SDS011;51175;51.186;0.276;2022-10-04T03:19:27;4.78;;;3.20;;
64738;SDS011;51175;51.186;0.276;2022-10-04T03:19:59;4.75;;;3.05;;
64738;SDS011;51175;51.186;0.276;2022-10-04T03:20:30;5.72;;;3.40;;
64738;SDS011;51175;51.186;0.276;2022-10-04T03:21:05;8.32;;;3.55;;
64738;SDS011;51175;51.186;0.276;2022-10-04T03:21:39;10.27;;;4.80;;
64738;SDS011;51175;51.186;0.276;2022-10-04T03:22:11;7.13;;;4.13;;
64738;SDS011;51175;51.186;0.276;2022-10-04T03:22:42;6.20;;;3.70;;
64738;SDS011;51175;51.186;0.276;2022-10-04T03:23:15;9.23;;;4.07;;
64738;SDS011;51175;51.186;0.276;2022-10-04T03:23:48;5.30;;;3.70;;
64738;SDS011;51175;51.186;0.276;2022-10-04T03:24:28;9.02;;;3.85;;
64738;SDS011;51175;51.186;0.276;2022-10-04T03:25:01;5.15;;;3.25;;
64738;SDS011;51175;51.186;0.276;2022-10-04T03:25:38;8.00;;;3.83;;
64738;SDS011;51175;51.186;0.276;2022-10-04T03:26:28;6.45;;;3.30;;
64738;SDS011;51175;51.186;0.276;2022-10-04T03:27:04;5.97;;;3.63;;
64738;SDS011;51175;51.186;0.276;2022-10-04T03:27:36;6.25;;;3.70;;
64738;SDS011;51175;51.186;0.276;2022-10-04T03:28:08;6.25;;;3.35;;
64738;SDS011;51175;51.186;0.276;2022-10-04T03:28:39;4.95;;;3.50;;
64738;SDS011;51175;51.186;0.276;2022-10-04T03:29:10;4.60;;;3.05;;
64738;SDS011;51175;51.186;0.276;2022-10-04T03:29:42;4.50;;;3.33;;
64738;SDS011;51175;51.186;0.276;2022-10-04T03:30:13;6.03;;;3.25;;
64738;SDS011;51175;51.186;0.276;2022-10-04T03:30:45;6.53;;;3.53;;
64738;SDS011;51175;51.186;0.276;2022-10-04T03:31:17;7.25;;;3.33;;
64738;SDS011;51175;51.186;0.276;2022-10-04T03:31:49;6.60;;;3.42;;
64738;SDS011;51175;51.186;0.276;2022-10-04T03:32:22;5.20;;;3.38;;
64738;SDS011;51175;51.186;0.276;2022-10-04T03:32:52;9.73;;;3.42;;
64738;SDS011;51175;51.186;0.276;2022-10-04T03:33:23;9.05;;;3.53;;
64738;SDS011;51175;51.186;0.276;2022-10-04T03:33:56;5.53;;;3.92;;
64738;SDS011;51175;51.186;0.276;2022-10-04T03:34:27;6.18;;;3.92;;
64738;SDS011;51175;51.186;0.276;2022-10-04T03:35:04;6.38;;;3.75;;
64738;SDS011;51175;51.186;0.276;2022-10-04T03:35:37;7.72;;;3.30;;
64738;SDS011;51175;51.186;0.276;2022-10-04T03:36:11;6.93;;;3.78;;
64738;SDS011;51175;51.186;0.276;2022-10-04T03:36:44;7.40;;;3.50;;
64738;SDS011;51175;51.186;0.276;2022-10-04T03:37:18;8.50;;;4.07;;
64738;SDS011;51175;51.186;0.276;2022-10-04T03:37:50;7.70;;;3.70;;
64738;SDS011;51175;51.186;0.276;2022-10-04T03:38:21;6.88;;;3.42;;
64738;SDS011;51175;51.186;0.276;2022-10-04T03:38:53;5.97;;;3.10;;
64738;SDS011;51175;51.186;0.276;2022-10-04T03:39:33;6.10;;;3.45;;
64738;SDS011;51175;51.186;0.276;2022-10-04T03:40:07;5.00;;;3.38;;
64738;SDS011;51175;51.186;0.276;2022-10-04T03:40:40;5.47;;;3.13;;
64738;SDS011;51175;51.186;0.276;2022-10-04T03:41:16;5.47;;;3.35;;
64738;SDS011;51175;51.186;0.276;2022-10-04T03:41:47;6.38;;;3.60;;
64738;SDS011;51175;51.186;0.276;2022-10-04T03:42:19;6.78;;;3.00;;
64738;SDS011;51175;51.186;0.276;2022-10-04T03:42:53;5.78;;;3.17;;
64738;SDS011;51175;51.186;0.276;2022-10-04T03:43:25;6.20;;;3.50;;
64738;SDS011;51175;51.186;0.276;2022-10-04T03:44:03;7.18;;;3.13;;
64738;SDS011;51175;51.186;0.276;2022-10-04T03:44:34;7.32;;;4.07;;
64738;SDS011;51175;51.186;0.276;2022-10-04T03:45:10;4.43;;;3.25;;
64738;SDS011;51175;51.186;0.276;2022-10-04T03:45:44;4.57;;;3.40;;
64738;SDS011;51175;51.186;0.276;2022-10-04T03:46:16;7.43;;;3.33;;
64738;SDS011;51175;51.186;0.276;2022-10-04T03:46:48;6.00;;;3.55;;
64738;SDS011;51175;51.186;0.276;2022-10-04T03:47:37;6.28;;;3.58;;
64738;SDS011;51175;51.186;0.276;2022-10-04T03:48:12;5.47;;;3.30;;
64738;SDS011;51175;51.186;0.276;2022-10-04T03:48:47;5.68;;;3.00;;
64738;SDS011;51175;51.186;0.276;2022-10-04T03:49:31;4.75;;;3.58;;
64738;SDS011;51175;51.186;0.276;2022-10-04T03:50:13;6.78;;;3.80;;
64738;SDS011;51175;51.186;0.276;2022-10-04T03:50:48;7.45;;;3.83;;
64738;SDS011;51175;51.186;0.276;2022-10-04T03:51:20;5.85;;;3.20;;
64738;SDS011;51175;51.186;0.276;2022-10-04T03:51:52;6.43;;;3.08;;
64738;SDS011;51175;51.186;0.276;2022-10-04T03:52:24;4.32;;;3.08;;
64738;SDS011;51175;51.186;0.276;2022-10-04T03:52:59;5.65;;;3.78;;
64738;SDS011;51175;51.186;0.276;2022-10-04T03:53:34;8.32;;;3.38;;
64738;SDS011;51175;51.186;0.276;2022-10-04T03:54:12;5.18;;;3.25;;
64738;SDS011;51175;51.186;0.276;2022-10-04T03:54:48;5.60;;;2.85;;
64738;SDS011;51175;51.186;0.276;2022-10-04T03:55:24;7.13;;;3.30;;
64738;SDS011;51175;51.186;0.276;2022-10-04T03:56:02;9.48;;;3.88;;
64738;SDS011;51175;51.186;0.276;2022-10-04T03:56:41;5.10;;;3.08;;
64738;SDS011;51175;51.186;0.276;2022-10-04T03:57:11;6.07;;;3.10;;
64738;SDS011;51175;51.186;0.276;2022-10-04T03:57:42;5.55;;;3.30;;
64738;SDS011;51175;51.186;0.276;2022-10-04T03:58:13;6.47;;;3.17;;
64738;SDS011;51175;51.186;0.276;2022-10-04T03:58:46;5.85;;;3.33;;
64738;SDS011;51175;51.186;0.276;2022-10-04T03:59:19;8.48;;;3.90;;
64738;SDS011;51175;51.186;0.276;2022-10-04T03:59:53;6.47;;;3.72;;
64738;SDS011;51175;51.186;0.276;2022-10-04T04:00:25;7.40;;;3.53;;
64738;SDS011;51175;51.186;0.276;2022-10-04T04:01:46;9.05;;;3.53;;
64738;SDS011;51175;51.186;0.276;2022-10-04T04:03:05;6.20;;;3.70;;
64738;SDS011;51175;51.186;0.276;2022-10-04T04:04:44;4.55;;;2.95;;
64738;SDS011;51175;51.186;0.276;2022-10-04T04:05:18;4.63;;;2.67;;
64738;SDS011;51175;51.186;0.276;2022-10-04T04:05:53;6.93;;;3.08;;
64738;SDS011;51175;51.186;0.276;2022-10-04T04:06:36;6.90;;;3.28;;
64738;SDS011;51175;51.186;0.276;2022-10-04T04:07:15;7.00;;;4.35;;
64738;SDS011;51175;51.186;0.276;2022-10-04T04:08:36;4.63;;;3.20;;
64738;SDS011;51175;51.186;0.276;2022-10-04T04:09:15;7.75;;;3.38;;
64738;SDS011;51175;51.186;0.276;2022-10-04T04:10:30;7.45;;;3.05;;
64738;SDS011;51175;51.186;0.276;2022-10-04T04:11:04;5.22;;;3.30;;
64738;SDS011;51175;51.186;0.276;2022-10-04T04:11:40;5.10;;;3.20;;
64738;SDS011;51175;51.186;0.276;2022-10-04T04:12:23;10.45;;;3.72;;